Time,TemperatureF,DewpointF,PressureIn,WindDirection,WindDirectionDegrees,WindSpeedMPH,WindSpeedGustMPH,Humidity,HourlyPrecipIn,Conditions,Clouds,dailyrainin,SoftwareType,DateUTC
2013-01-05 09:59:00,35.4,20.0,30.32,SSE,158,2.0,8.0,54,0.00,,,0.00,weatherlink.com 1.10,2013-01-05 14:59:00,
2013-01-05 10:02:00,35.8,20.0,30.33,SW,228,6.0,8.0,54,0.00,,,0.00,weatherlink.com 1.10,2013-01-05 15:02:00,
2013-01-05 10:17:00,35.9,20.0,30.32,SW,216,7.0,14.0,53,0.00,,,0.00,weatherlink.com 1.10,2013-01-05 15:17:00,
2013-01-05 10:32:00,36.4,20.0,30.33,WSW,241,7.0,14.0,51,0.00,,,0.00,weatherlink.com 1.10,2013-01-05 15:32:00,
2013-01-05 10:47:00,36.8,20.0,30.32,West,275,4.0,17.0,51,0.00,,,0.00,weatherlink.com 1.10,2013-01-05 15:47:00,
2013-01-05 11:02:00,38.2,19.0,30.32,NNW,328,0.0,10.0,47,0.00,,,0.00,weatherlink.com 1.10,2013-01-05 16:02:00,
2013-01-05 11:18:00,39.9,19.0,30.32,WSW,240,6.0,9.0,44,0.00,,,0.00,weatherlink.com 1.10,2013-01-05 16:18:00,
2013-01-05 11:33:00,40.2,20.0,30.31,West,266,2.0,8.0,44,0.00,,,0.00,weatherlink.com 1.10,2013-01-05 16:33:00,
2013-01-05 11:48:00,41.4,21.0,30.30,WNW,293,2.0,7.0,45,0.00,,,0.00,weatherlink.com 1.10,2013-01-05 16:48:00,
2013-01-05 12:03:00,40.4,20.0,30.30,NE,48,3.0,7.0,45,0.00,,,0.00,weatherlink.com 1.10,2013-01-05 17:03:00,
2013-01-05 12:18:00,41.0,21.0,30.29,WNW,290,2.0,7.0,45,0.00,,,0.00,weatherlink.com 1.10,2013-01-05 17:18:00,
2013-01-05 12:33:00,41.7,21.0,30.28,West,259,6.0,9.0,44,0.00,,,0.00,weatherlink.com 1.10,2013-01-05 17:33:00,
2013-01-05 12:48:00,42.2,20.0,30.27,WNW,283,1.0,8.0,42,0.00,,,0.00,weatherlink.com 1.10,2013-01-05 17:48:00,
2013-01-05 13:03:00,42.2,20.0,30.26,North,359,1.0,9.0,41,0.00,,,0.00,weatherlink.com 1.10,2013-01-05 18:03:00,
2013-01-05 13:18:00,41.5,20.0,30.24,NNE,21,1.0,7.0,43,0.00,,,0.00,weatherlink.com 1.10,2013-01-05 18:18:00,
2013-01-05 13:33:00,43.9,21.0,30.24,West,262,2.0,4.0,41,0.00,,,0.00,weatherlink.com 1.10,2013-01-05 18:33:00,
2013-01-05 13:48:00,42.0,21.0,30.24,West,277,2.0,6.0,43,0.00,,,0.00,weatherlink.com 1.10,2013-01-05 18:48:00,
2013-01-05 14:03:00,41.2,19.0,30.24,SW,232,4.0,7.0,41,0.00,,,0.00,weatherlink.com 1.10,2013-01-05 19:03:00,
2013-01-05 14:18:00,41.4,19.0,30.23,SW,231,5.0,6.0,41,0.00,,,0.00,weatherlink.com 1.10,2013-01-05 19:18:00,
2013-01-05 14:33:00,40.7,20.0,30.23,SW,216,4.0,8.0,43,0.00,,,0.00,weatherlink.com 1.10,2013-01-05 19:33:00,
2013-01-05 14:48:00,40.9,20.0,30.23,SW,220,4.0,7.0,43,0.00,,,0.00,weatherlink.com 1.10,2013-01-05 19:48:00,
2013-01-05 15:03:00,41.0,19.0,30.23,SW,219,7.0,7.0,42,0.00,,,0.00,weatherlink.com 1.10,2013-01-05 20:03:00,
2013-01-05 15:18:00,41.7,19.0,30.22,WSW,249,1.0,5.0,41,0.00,,,0.00,weatherlink.com 1.10,2013-01-05 20:18:00,
2013-01-05 15:33:00,42.4,19.0,30.22,West,260,3.0,6.0,39,0.00,,,0.00,weatherlink.com 1.10,2013-01-05 20:33:00,
2013-01-05 15:48:00,43.0,22.0,30.22,WSW,251,0.0,4.0,43,0.00,,,0.00,weatherlink.com 1.10,2013-01-05 20:48:00,
2013-01-05 16:03:00,38.8,24.0,30.22,NW,319,2.0,4.0,55,0.00,,,0.00,weatherlink.com 1.10,2013-01-05 21:03:00,
2013-01-05 16:18:00,35.3,26.0,30.22,NW,324,0.0,4.0,68,0.00,,,0.00,weatherlink.com 1.10,2013-01-05 21:18:00,
2013-01-05 16:33:00,35.1,27.0,30.21,NW,324,0.0,2.0,72,0.00,,,0.00,weatherlink.com 1.10,2013-01-05 21:33:00,
2013-01-05 16:48:00,33.8,27.0,30.21,NW,324,2.0,2.0,75,0.00,,,0.00,weatherlink.com 1.10,2013-01-05 21:48:00,
2013-01-05 17:03:00,32.4,26.0,30.21,NW,324,0.0,0.0,77,0.00,,,0.00,weatherlink.com 1.10,2013-01-05 22:03:00,
2013-01-05 17:18:00,31.2,25.0,30.21,NW,324,0.0,2.0,78,0.00,,,0.00,weatherlink.com 1.10,2013-01-05 22:18:00,
2013-01-05 17:33:00,30.5,25.0,30.21,NW,324,0.0,0.0,79,0.00,,,0.00,weatherlink.com 1.10,2013-01-05 22:33:00,
2013-01-05 17:48:00,29.9,24.0,30.20,NW,324,0.0,3.0,80,0.00,,,0.00,weatherlink.com 1.10,2013-01-05 22:48:00,
2013-01-05 18:03:00,29.6,24.0,30.20,NW,324,1.0,2.0,80,0.00,,,0.00,weatherlink.com 1.10,2013-01-05 23:03:00,
2013-01-05 18:18:00,29.2,24.0,30.19,NW,324,0.0,2.0,81,0.00,,,0.00,weatherlink.com 1.10,2013-01-05 23:18:00,
2013-01-05 18:33:00,28.7,24.0,30.20,NW,324,0.0,0.0,81,0.00,,,0.00,weatherlink.com 1.10,2013-01-05 23:33:00,
2013-01-05 18:48:00,28.6,24.0,30.21,NW,324,0.0,0.0,83,0.00,,,0.00,weatherlink.com 1.10,2013-01-05 23:48:00,
2013-01-05 19:18:00,29.2,24.0,30.19,NW,324,1.0,2.0,82,0.00,,,0.00,weatherlink.com 1.10,2013-01-06 00:18:00,
2013-01-05 19:33:00,29.5,25.0,30.18,NW,324,1.0,2.0,83,0.00,,,0.00,weatherlink.com 1.10,2013-01-06 00:33:00,
2013-01-05 19:48:00,29.4,25.0,30.17,NW,324,0.0,0.0,82,0.00,,,0.00,weatherlink.com 1.10,2013-01-06 00:48:00,
2013-01-05 20:03:00,29.0,24.0,30.17,NW,324,0.0,0.0,82,0.00,,,0.00,weatherlink.com 1.10,2013-01-06 01:03:00,
2013-01-05 20:18:00,28.6,25.0,30.16,NW,324,1.0,2.0,85,0.00,,,0.00,weatherlink.com 1.10,2013-01-06 01:18:00,
2013-01-05 20:33:00,28.7,25.0,30.17,NW,324,0.0,1.0,85,0.00,,,0.00,weatherlink.com 1.10,2013-01-06 01:33:00,
2013-01-05 20:48:00,28.9,25.0,30.19,NW,324,0.0,0.0,86,0.00,,,0.00,weatherlink.com 1.10,2013-01-06 01:48:00,
2013-01-05 21:03:00,29.5,26.0,30.18,NW,324,0.0,0.0,85,0.00,,,0.00,weatherlink.com 1.10,2013-01-06 02:03:00,
2013-01-05 21:18:00,30.2,26.0,30.18,NW,324,1.0,2.0,83,0.00,,,0.00,weatherlink.com 1.10,2013-01-06 02:18:00,
2013-01-05 21:33:00,30.8,26.0,30.18,NW,324,1.0,3.0,82,0.00,,,0.00,weatherlink.com 1.10,2013-01-06 02:33:00,
2013-01-05 21:48:00,31.3,26.0,30.17,NW,324,0.0,2.0,82,0.00,,,0.00,weatherlink.com 1.10,2013-01-06 02:48:00,
2013-01-05 22:03:00,33.1,25.0,30.18,ENE,76,0.0,7.0,71,0.00,,,0.00,weatherlink.com 1.10,2013-01-06 03:03:00,
2013-01-05 22:18:00,36.2,25.0,30.16,ESE,112,2.0,9.0,63,0.00,,,0.00,weatherlink.com 1.10,2013-01-06 03:18:00,
2013-01-05 22:33:00,36.3,25.0,30.15,NNW,339,0.0,4.0,63,0.00,,,0.00,weatherlink.com 1.10,2013-01-06 03:33:00,
2013-01-05 22:48:00,35.6,26.0,30.14,NNW,339,0.0,1.0,68,0.00,,,0.00,weatherlink.com 1.10,2013-01-06 03:48:00,
2013-01-05 23:03:00,34.9,28.0,30.15,NNW,339,0.0,0.0,75,0.00,,,0.00,weatherlink.com 1.10,2013-01-06 04:03:00,
2013-01-05 23:18:00,34.0,28.0,30.15,NNW,339,0.0,2.0,78,0.00,,,0.00,weatherlink.com 1.10,2013-01-06 04:18:00,
2013-01-05 23:33:00,33.7,28.0,30.15,NNW,339,0.0,3.0,81,0.00,,,0.00,weatherlink.com 1.10,2013-01-06 04:33:00,
2013-01-05 23:48:00,33.7,28.0,30.14,NNE,32,0.0,4.0,80,0.00,,,0.00,weatherlink.com 1.10,2013-01-06 04:48:00,